sensor_id;sensor_type;location;lat;lon;timestamp;pressure;altitude;pressure_sealevel;temperature;humidity
55070;BME280;40967;52.070;8.596;2023-05-20T00:00:34;101321.63;;;13.41;56.57
55070;BME280;40967;52.070;8.596;2023-05-20T00:02:59;101315.13;;;13.42;56.31
55070;BME280;40967;52.070;8.596;2023-05-20T00:05:25;101314.84;;;13.39;56.19
55070;BME280;40967;52.070;8.596;2023-05-20T00:07:50;101308.00;;;13.41;56.42
55070;BME280;40967;52.070;8.596;2023-05-20T00:10:15;101315.38;;;13.41;56.89
55070;BME280;40967;52.070;8.596;2023-05-20T00:12:47;101316.19;;;13.36;56.76
55070;BME280;40967;52.070;8.596;2023-05-20T00:15:12;101323.28;;;13.37;56.90
55070;BME280;40967;52.070;8.596;2023-05-20T00:17:38;101311.81;;;13.35;57.22
55070;BME280;40967;52.070;8.596;2023-05-20T00:20:04;101316.44;;;13.35;57.53
55070;BME280;40967;52.070;8.596;2023-05-20T00:22:30;101319.44;;;13.33;57.33
55070;BME280;40967;52.070;8.596;2023-05-20T00:24:55;101323.78;;;13.34;57.22
55070;BME280;40967;52.070;8.596;2023-05-20T00:27:21;101320.28;;;13.34;57.44
55070;BME280;40967;52.070;8.596;2023-05-20T00:29:46;101321.34;;;13.33;57.34
55070;BME280;40967;52.070;8.596;2023-05-20T00:32:12;101311.00;;;13.30;57.67
55070;BME280;40967;52.070;8.596;2023-05-20T00:34:41;101311.53;;;13.27;57.37
55070;BME280;40967;52.070;8.596;2023-05-20T00:37:07;101320.00;;;13.30;57.38
55070;BME280;40967;52.070;8.596;2023-05-20T00:39:32;101317.81;;;13.27;57.58
55070;BME280;40967;52.070;8.596;2023-05-20T00:41:58;101318.88;;;13.26;57.86
55070;BME280;40967;52.070;8.596;2023-05-20T00:44:26;101309.88;;;13.26;57.72
55070;BME280;40967;52.070;8.596;2023-05-20T00:46:52;101316.16;;;13.26;57.78
55070;BME280;40967;52.070;8.596;2023-05-20T00:49:18;101315.03;;;13.22;57.82
55070;BME280;40967;52.070;8.596;2023-05-20T00:51:44;101327.88;;;13.22;57.96
55070;BME280;40967;52.070;8.596;2023-05-20T00:54:09;101322.69;;;13.20;58.10
55070;BME280;40967;52.070;8.596;2023-05-20T00:56:36;101319.13;;;13.20;58.31
55070;BME280;40967;52.070;8.596;2023-05-20T00:59:01;101314.22;;;13.17;58.23
55070;BME280;40967;52.070;8.596;2023-05-20T01:01:27;101317.47;;;13.14;58.17
55070;BME280;40967;52.070;8.596;2023-05-20T01:03:52;101315.00;;;13.12;58.29
55070;BME280;40967;52.070;8.596;2023-05-20T01:06:18;101314.44;;;13.10;58.37
55070;BME280;40967;52.070;8.596;2023-05-20T01:08:43;101310.09;;;13.04;58.58
55070;BME280;40967;52.070;8.596;2023-05-20T01:11:15;101310.91;;;13.05;58.83
55070;BME280;40967;52.070;8.596;2023-05-20T01:13:50;101308.94;;;13.00;58.79
55070;BME280;40967;52.070;8.596;2023-05-20T01:16:17;101308.94;;;13.00;59.27
55070;BME280;40967;52.070;8.596;2023-05-20T01:18:46;101309.47;;;12.97;59.08
55070;BME280;40967;52.070;8.596;2023-05-20T01:21:14;101313.03;;;12.98;58.99
55070;BME280;40967;52.070;8.596;2023-05-20T01:23:41;101300.19;;;12.93;59.15
55070;BME280;40967;52.070;8.596;2023-05-20T01:26:07;101303.44;;;12.90;59.15
55070;BME280;40967;52.070;8.596;2023-05-20T01:28:36;101303.16;;;12.87;59.52
55070;BME280;40967;52.070;8.596;2023-05-20T01:31:04;101300.16;;;12.83;59.82
55070;BME280;40967;52.070;8.596;2023-05-20T01:33:35;101305.03;;;12.81;59.70
55070;BME280;40967;52.070;8.596;2023-05-20T01:36:02;101297.94;;;12.75;59.93
55070;BME280;40967;52.070;8.596;2023-05-20T01:38:28;101294.97;;;12.77;60.17
55070;BME280;40967;52.070;8.596;2023-05-20T01:40:56;101291.13;;;12.73;60.36
55070;BME280;40967;52.070;8.596;2023-05-20T01:43:25;101292.44;;;12.70;60.48
55070;BME280;40967;52.070;8.596;2023-05-20T01:45:51;101296.53;;;12.68;60.47
55070;BME280;40967;52.070;8.596;2023-05-20T01:48:16;101283.97;;;12.62;60.89
55070;BME280;40967;52.070;8.596;2023-05-20T01:50:42;101292.41;;;12.60;61.06
55070;BME280;40967;52.070;8.596;2023-05-20T01:53:07;101288.88;;;12.60;61.13
55070;BME280;40967;52.070;8.596;2023-05-20T01:55:34;101284.47;;;12.53;61.36
55070;BME280;40967;52.070;8.596;2023-05-20T01:58:00;101283.16;;;12.56;61.12
55070;BME280;40967;52.070;8.596;2023-05-20T02:00:25;101283.38;;;12.54;61.23
55070;BME280;40967;52.070;8.596;2023-05-20T02:02:51;101290.75;;;12.54;61.50
55070;BME280;40967;52.070;8.596;2023-05-20T02:05:17;101291.00;;;12.52;61.40
55070;BME280;40967;52.070;8.596;2023-05-20T02:07:42;101292.66;;;12.53;61.14
55070;BME280;40967;52.070;8.596;2023-05-20T02:10:08;101295.38;;;12.53;61.24
55070;BME280;40967;52.070;8.596;2023-05-20T02:12:34;101284.72;;;12.47;61.58
55070;BME280;40967;52.070;8.596;2023-05-20T02:15:00;101291.78;;;12.48;61.87
55070;BME280;40967;52.070;8.596;2023-05-20T02:17:25;101299.94;;;12.48;61.29
55070;BME280;40967;52.070;8.596;2023-05-20T02:19:51;101288.50;;;12.46;61.16
55070;BME280;40967;52.070;8.596;2023-05-20T02:22:16;101290.66;;;12.44;61.20
55070;BME280;40967;52.070;8.596;2023-05-20T02:24:42;101292.84;;;12.42;61.69
55070;BME280;40967;52.070;8.596;2023-05-20T02:27:08;101286.84;;;12.40;61.55
55070;BME280;40967;52.070;8.596;2023-05-20T02:29:33;101291.72;;;12.38;62.01
55070;BME280;40967;52.070;8.596;2023-05-20T02:31:59;101287.88;;;12.34;61.66
55070;BME280;40967;52.070;8.596;2023-05-20T02:34:24;101285.16;;;12.34;61.73
55070;BME280;40967;52.070;8.596;2023-05-20T02:36:50;101289.50;;;12.30;61.68
55070;BME280;40967;52.070;8.596;2023-05-20T02:39:16;101283.78;;;12.26;61.70
55070;BME280;40967;52.070;8.596;2023-05-20T02:41:42;101276.34;;;12.17;62.31
55070;BME280;40967;52.070;8.596;2023-05-20T02:44:07;101279.91;;;12.17;62.84
55070;BME280;40967;52.070;8.596;2023-05-20T02:46:33;101280.44;;;12.14;62.90
55070;BME280;40967;52.070;8.596;2023-05-20T02:48:58;101274.41;;;12.12;62.44
55070;BME280;40967;52.070;8.596;2023-05-20T02:51:24;101278.47;;;12.10;62.57
55070;BME280;40967;52.070;8.596;2023-05-20T02:53:49;101279.00;;;12.07;62.50
55070;BME280;40967;52.070;8.596;2023-05-20T02:56:15;101281.41;;;12.03;62.71
55070;BME280;40967;52.070;8.596;2023-05-20T02:58:40;101283.56;;;12.01;62.63
55070;BME280;40967;52.070;8.596;2023-05-20T03:01:06;101278.41;;;12.00;63.32
55070;BME280;40967;52.070;8.596;2023-05-20T03:03:32;101284.09;;;11.98;63.09
55070;BME280;40967;52.070;8.596;2023-05-20T03:05:58;101279.19;;;11.95;62.97
55070;BME280;40967;52.070;8.596;2023-05-20T03:08:23;101283.81;;;11.95;62.76
55070;BME280;40967;52.070;8.596;2023-05-20T03:10:49;101272.06;;;11.89;63.31
55070;BME280;40967;52.070;8.596;2023-05-20T03:13:15;101287.28;;;11.90;63.09
55070;BME280;40967;52.070;8.596;2023-05-20T03:15:41;101292.41;;;11.87;63.17
55070;BME280;40967;52.070;8.596;2023-05-20T03:18:06;101286.44;;;11.85;63.42
55070;BME280;40967;52.070;8.596;2023-05-20T03:20:35;101279.56;;;11.77;63.87
55070;BME280;40967;52.070;8.596;2023-05-20T03:23:04;101280.66;;;11.76;63.86
55070;BME280;40967;52.070;8.596;2023-05-20T03:25:29;101283.09;;;11.73;63.96
55070;BME280;40967;52.070;8.596;2023-05-20T03:27:55;101290.09;;;11.69;64.17
55070;BME280;40967;52.070;8.596;2023-05-20T03:30:22;101283.53;;;11.65;64.61
55070;BME280;40967;52.070;8.596;2023-05-20T03:32:48;101294.63;;;11.63;64.69
55070;BME280;40967;52.070;8.596;2023-05-20T03:35:13;101289.41;;;11.57;65.30
55070;BME280;40967;52.070;8.596;2023-05-20T03:37:42;101301.59;;;11.54;65.28
55070;BME280;40967;52.070;8.596;2023-05-20T03:40:08;101303.75;;;11.52;65.22
55070;BME280;40967;52.070;8.596;2023-05-20T03:42:37;101304.28;;;11.49;65.47
55070;BME280;40967;52.070;8.596;2023-05-20T03:45:03;101312.44;;;11.49;65.34
55070;BME280;40967;52.070;8.596;2023-05-20T03:47:29;101310.81;;;11.48;65.23
55070;BME280;40967;52.070;8.596;2023-05-20T03:49:54;101311.28;;;11.45;65.58
55070;BME280;40967;52.070;8.596;2023-05-20T03:52:20;101298.22;;;11.42;65.87
55070;BME280;40967;52.070;8.596;2023-05-20T03:54:46;101306.13;;;11.43;66.00
55070;BME280;40967;52.070;8.596;2023-05-20T03:57:11;101291.16;;;11.41;65.93
55070;BME280;40967;52.070;8.596;2023-05-20T03:59:37;101285.94;;;11.34;66.49
55070;BME280;40967;52.070;8.596;2023-05-20T04:02:04;101307.16;;;11.37;66.64
55070;BME280;40967;52.070;8.596;2023-05-20T04:04:30;101289.41;;;11.30;67.42
55070;BME280;40967;52.070;8.596;2023-05-20T04:06:57;101281.25;;;11.30;67.57
55070;BME280;40967;52.070;8.596;2023-05-20T04:09:25;101287.78;;;11.29;67.48
55070;BME280;40967;52.070;8.596;2023-05-20T04:11:50;101277.91;;;11.23;68.15
55070;BME280;40967;52.070;8.596;2023-05-20T04:14:16;101284.69;;;11.20;68.22
55070;BME280;40967;52.070;8.596;2023-05-20T04:16:41;101285.75;;;11.19;68.18
55070;BME280;40967;52.070;8.596;2023-05-20T04:19:07;101284.69;;;11.20;68.45
55070;BME280;40967;52.070;8.596;2023-05-20T04:21:33;101284.94;;;11.19;68.17
55070;BME280;40967;52.070;8.596;2023-05-20T04:23:58;101286.31;;;11.21;68.59
55070;BME280;40967;52.070;8.596;2023-05-20T04:26:23;101285.22;;;11.22;68.46
55070;BME280;40967;52.070;8.596;2023-05-20T04:28:49;101285.22;;;11.22;68.17
55070;BME280;40967;52.070;8.596;2023-05-20T04:31:15;101277.59;;;11.19;68.58
55070;BME280;40967;52.070;8.596;2023-05-20T04:33:41;101286.59;;;11.20;69.21
55070;BME280;40967;52.070;8.596;2023-05-20T04:36:09;101287.09;;;11.17;69.32
55070;BME280;40967;52.070;8.596;2023-05-20T04:38:37;101279.69;;;11.12;69.55
55070;BME280;40967;52.070;8.596;2023-05-20T04:41:06;101282.41;;;11.12;70.26
55070;BME280;40967;52.070;8.596;2023-05-20T04:43:32;101282.41;;;11.12;70.13
55070;BME280;40967;52.070;8.596;2023-05-20T04:45:58;101282.09;;;11.09;70.22
55070;BME280;40967;52.070;8.596;2023-05-20T04:48:25;101289.50;;;11.13;70.30
55070;BME280;40967;52.070;8.596;2023-05-20T04:50:51;101281.63;;;11.12;70.17
55070;BME280;40967;52.070;8.596;2023-05-20T04:53:19;101279.97;;;11.11;70.32
55070;BME280;40967;52.070;8.596;2023-05-20T04:55:46;101281.84;;;11.10;70.87
55070;BME280;40967;52.070;8.596;2023-05-20T04:58:12;101271.50;;;11.07;71.20
55070;BME280;40967;52.070;8.596;2023-05-20T05:00:45;101275.88;;;11.08;71.00
55070;BME280;40967;52.070;8.596;2023-05-20T05:03:11;101272.06;;;11.09;71.00
55070;BME280;40967;52.070;8.596;2023-05-20T05:05:40;101278.63;;;11.13;71.02
55070;BME280;40967;52.070;8.596;2023-05-20T05:08:07;101278.94;;;11.17;71.33
55070;BME280;40967;52.070;8.596;2023-05-20T05:10:32;101278.69;;;11.18;70.84
55070;BME280;40967;52.070;8.596;2023-05-20T05:12:58;101276.28;;;11.22;71.33
55070;BME280;40967;52.070;8.596;2023-05-20T05:15:24;101270.34;;;11.25;71.03
55070;BME280;40967;52.070;8.596;2023-05-20T05:17:49;101266.84;;;11.29;71.06
55070;BME280;40967;52.070;8.596;2023-05-20T05:20:15;101273.41;;;11.33;71.28
55070;BME280;40967;52.070;8.596;2023-05-20T05:22:41;101274.59;;;11.42;71.34
55070;BME280;40967;52.070;8.596;2023-05-20T05:25:07;101270.84;;;11.48;71.51
55070;BME280;40967;52.070;8.596;2023-05-20T05:27:33;101275.25;;;11.55;71.05
55070;BME280;40967;52.070;8.596;2023-05-20T05:30:00;101267.16;;;11.60;70.73
55070;BME280;40967;52.070;8.596;2023-05-20T05:32:26;101260.72;;;11.66;70.54
55070;BME280;40967;52.070;8.596;2023-05-20T05:34:51;101257.78;;;11.72;70.55
55070;BME280;40967;52.070;8.596;2023-05-20T05:37:17;101264.69;;;11.85;69.95
55070;BME280;40967;52.070;8.596;2023-05-20T05:39:42;101259.03;;;11.91;69.89
55070;BME280;40967;52.070;8.596;2023-05-20T05:42:07;101265.91;;;11.99;70.25
55070;BME280;40967;52.070;8.596;2023-05-20T05:44:33;101267.03;;;12.08;70.16
55070;BME280;40967;52.070;8.596;2023-05-20T05:46:59;101253.44;;;12.08;69.76
55070;BME280;40967;52.070;8.596;2023-05-20T05:49:24;101269.56;;;12.14;69.44
55070;BME280;40967;52.070;8.596;2023-05-20T05:51:50;101272.31;;;12.19;69.58
55070;BME280;40967;52.070;8.596;2023-05-20T05:54:15;101270.97;;;12.27;69.09
55070;BME280;40967;52.070;8.596;2023-05-20T05:56:41;101283.56;;;12.38;69.13
55070;BME280;40967;52.070;8.596;2023-05-20T05:59:06;101277.84;;;12.39;68.97
55070;BME280;40967;52.070;8.596;2023-05-20T06:01:34;101272.47;;;12.49;68.83
55070;BME280;40967;52.070;8.596;2023-05-20T06:04:01;101263.50;;;12.49;68.44
55070;BME280;40967;52.070;8.596;2023-05-20T06:06:27;101270.34;;;12.62;68.59
55070;BME280;40967;52.070;8.596;2023-05-20T06:08:52;101270.94;;;12.69;67.94
55070;BME280;40967;52.070;8.596;2023-05-20T06:11:18;101264.97;;;12.72;68.00
55070;BME280;40967;52.070;8.596;2023-05-20T06:13:49;101260.63;;;12.81;67.81
55070;BME280;40967;52.070;8.596;2023-05-20T06:16:28;101267.22;;;12.95;67.88
55070;BME280;40967;52.070;8.596;2023-05-20T06:18:54;101266.50;;;13.04;67.51
55070;BME280;40967;52.070;8.596;2023-05-20T06:21:22;101260.25;;;13.14;67.38
55070;BME280;40967;52.070;8.596;2023-05-20T06:23:51;101267.66;;;13.28;66.98
55070;BME280;40967;52.070;8.596;2023-05-20T06:26:16;101260.88;;;13.41;66.58
55070;BME280;40967;52.070;8.596;2023-05-20T06:28:45;101260.88;;;13.51;66.61
55070;BME280;40967;52.070;8.596;2023-05-20T06:31:10;101259.25;;;13.65;66.48
55070;BME280;40967;52.070;8.596;2023-05-20T06:33:36;101272.09;;;13.85;65.71
55070;BME280;40967;52.070;8.596;2023-05-20T06:36:01;101267.72;;;13.94;65.42
55070;BME280;40967;52.070;8.596;2023-05-20T06:38:27;101265.25;;;14.02;65.09
55070;BME280;40967;52.070;8.596;2023-05-20T06:40:52;101270.44;;;14.14;65.17
55070;BME280;40967;52.070;8.596;2023-05-20T06:43:20;101247.47;;;14.25;64.56
55070;BME280;40967;52.070;8.596;2023-05-20T06:45:48;101264.41;;;14.47;63.68
55070;BME280;40967;52.070;8.596;2023-05-20T06:48:15;101261.91;;;14.60;63.16
55070;BME280;40967;52.070;8.596;2023-05-20T06:50:40;101253.69;;;14.65;62.87
55070;BME280;40967;52.070;8.596;2023-05-20T06:53:06;101255.03;;;14.73;62.60
55070;BME280;40967;52.070;8.596;2023-05-20T06:55:31;101255.81;;;14.84;62.66
55070;BME280;40967;52.070;8.596;2023-05-20T06:57:56;101251.59;;;15.01;62.36
55070;BME280;40967;52.070;8.596;2023-05-20T07:00:22;101253.72;;;15.19;62.15
55070;BME280;40967;52.070;8.596;2023-05-20T07:02:47;101248.94;;;15.45;61.67
55070;BME280;40967;52.070;8.596;2023-05-20T07:05:13;101237.56;;;15.66;61.01
55070;BME280;40967;52.070;8.596;2023-05-20T07:07:38;101237.66;;;15.85;60.35
55070;BME280;40967;52.070;8.596;2023-05-20T07:10:04;101242.16;;;16.05;59.92
55070;BME280;40967;52.070;8.596;2023-05-20T07:12:31;101238.72;;;16.23;59.62
55070;BME280;40967;52.070;8.596;2023-05-20T07:14:56;101236.56;;;16.43;59.10
55070;BME280;40967;52.070;8.596;2023-05-20T07:17:25;101231.34;;;16.70;58.48
55070;BME280;40967;52.070;8.596;2023-05-20T07:19:51;101236.22;;;16.97;58.14
55070;BME280;40967;52.070;8.596;2023-05-20T07:22:16;101229.97;;;17.10;57.02
55070;BME280;40967;52.070;8.596;2023-05-20T07:24:42;101223.69;;;17.28;57.37
55070;BME280;40967;52.070;8.596;2023-05-20T07:27:07;101229.41;;;17.50;56.22
55070;BME280;40967;52.070;8.596;2023-05-20T07:29:34;101224.19;;;17.67;55.76
55070;BME280;40967;52.070;8.596;2023-05-20T07:32:00;101217.56;;;17.87;55.30
55070;BME280;40967;52.070;8.596;2023-05-20T07:34:25;101217.59;;;18.00;54.45
55070;BME280;40967;52.070;8.596;2023-05-20T07:36:51;101215.47;;;18.11;53.86
55070;BME280;40967;52.070;8.596;2023-05-20T07:39:17;101214.38;;;18.12;53.74
55070;BME280;40967;52.070;8.596;2023-05-20T07:41:42;101224.25;;;18.13;53.64
55070;BME280;40967;52.070;8.596;2023-05-20T07:44:08;101213.97;;;18.19;53.82
55070;BME280;40967;52.070;8.596;2023-05-20T07:46:35;101216.00;;;18.27;53.82
55070;BME280;40967;52.070;8.596;2023-05-20T07:49:02;101208.38;;;18.24;53.64
55070;BME280;40967;52.070;8.596;2023-05-20T07:51:28;101209.31;;;18.33;53.40
55070;BME280;40967;52.070;8.596;2023-05-20T07:53:54;101211.06;;;18.42;53.32
55070;BME280;40967;52.070;8.596;2023-05-20T07:56:19;101195.59;;;18.46;53.21
55070;BME280;40967;52.070;8.596;2023-05-20T07:58:51;101193.56;;;18.65;53.30
55070;BME280;40967;52.070;8.596;2023-05-20T08:01:18;101194.78;;;18.86;53.38
55070;BME280;40967;52.070;8.596;2023-05-20T08:03:43;101198.28;;;19.14;52.65
55070;BME280;40967;52.070;8.596;2023-05-20T08:06:11;101203.13;;;19.31;51.48
55070;BME280;40967;52.070;8.596;2023-05-20T08:08:36;101197.66;;;19.53;50.90
55070;BME280;40967;52.070;8.596;2023-05-20T08:11:04;101187.69;;;19.65;49.84
55070;BME280;40967;52.070;8.596;2023-05-20T08:13:30;101198.47;;;19.75;49.20
55070;BME280;40967;52.070;8.596;2023-05-20T08:15:55;101199.22;;;19.89;48.30
55070;BME280;40967;52.070;8.596;2023-05-20T08:18:21;101184.03;;;20.00;47.73
55070;BME280;40967;52.070;8.596;2023-05-20T08:20:47;101191.97;;;20.24;47.31
55070;BME280;40967;52.070;8.596;2023-05-20T08:23:12;101191.03;;;20.37;46.95
55070;BME280;40967;52.070;8.596;2023-05-20T08:25:38;101196.75;;;20.49;46.37
55070;BME280;40967;52.070;8.596;2023-05-20T08:28:04;101190.50;;;20.66;46.51
55070;BME280;40967;52.070;8.596;2023-05-20T08:30:32;101187.13;;;20.77;45.64
55070;BME280;40967;52.070;8.596;2023-05-20T08:32:59;101185.19;;;20.86;45.30
55070;BME280;40967;52.070;8.596;2023-05-20T08:35:24;101190.06;;;20.98;44.86
55070;BME280;40967;52.070;8.596;2023-05-20T08:37:50;101180.53;;;21.04;44.40
55070;BME280;40967;52.070;8.596;2023-05-20T08:40:18;101183.75;;;21.06;44.17
55070;BME280;40967;52.070;8.596;2023-05-20T08:42:47;101178.13;;;21.11;44.40
55070;BME280;40967;52.070;8.596;2023-05-20T08:45:14;101177.63;;;21.26;44.28
55070;BME280;40967;52.070;8.596;2023-05-20T08:47:50;101174.19;;;21.37;43.60
55070;BME280;40967;52.070;8.596;2023-05-20T08:50:16;101166.09;;;21.32;43.72
55070;BME280;40967;52.070;8.596;2023-05-20T08:52:43;101167.56;;;21.47;43.45
55070;BME280;40967;52.070;8.596;2023-05-20T08:55:52;101168.19;;;21.61;43.66
55070;BME280;40967;52.070;8.596;2023-05-20T08:58:18;101179.53;;;21.85;43.53
55070;BME280;40967;52.070;8.596;2023-05-20T09:00:44;101171.38;;;21.97;42.72
55070;BME280;40967;52.070;8.596;2023-05-20T09:03:09;101166.16;;;22.04;41.98
55070;BME280;40967;52.070;8.596;2023-05-20T09:05:35;101169.06;;;22.08;42.21
55070;BME280;40967;52.070;8.596;2023-05-20T09:08:10;101162.84;;;22.19;41.77
55070;BME280;40967;52.070;8.596;2023-05-20T09:10:38;101172.34;;;22.39;41.68
55070;BME280;40967;52.070;8.596;2023-05-20T09:13:05;101173.72;;;22.53;41.31
55070;BME280;40967;52.070;8.596;2023-05-20T09:15:31;101169.09;;;22.75;41.44
55070;BME280;40967;52.070;8.596;2023-05-20T09:18:05;101172.97;;;23.03;41.28
55070;BME280;40967;52.070;8.596;2023-05-20T09:20:36;101180.66;;;23.18;40.47
55070;BME280;40967;52.070;8.596;2023-05-20T09:23:04;101161.56;;;23.25;40.32
55070;BME280;40967;52.070;8.596;2023-05-20T09:25:34;101159.09;;;23.32;40.17
55070;BME280;40967;52.070;8.596;2023-05-20T09:27:59;101169.94;;;23.37;40.07
55070;BME280;40967;52.070;8.596;2023-05-20T09:30:28;101155.78;;;23.38;39.56
55070;BME280;40967;52.070;8.596;2023-05-20T09:36:25;101163.25;;;23.58;39.67
55070;BME280;40967;52.070;8.596;2023-05-20T09:39:03;101129.53;;;23.56;39.39
55070;BME280;40967;52.070;8.596;2023-05-20T09:42:24;101151.59;;;23.98;39.39
55070;BME280;40967;52.070;8.596;2023-05-20T09:44:53;101147.59;;;24.19;39.13
55070;BME280;40967;52.070;8.596;2023-05-20T09:47:19;101159.75;;;24.39;38.99
55070;BME280;40967;52.070;8.596;2023-05-20T09:49:47;101139.75;;;24.33;38.33
55070;BME280;40967;52.070;8.596;2023-05-20T09:52:21;101141.34;;;24.34;38.70
55070;BME280;40967;52.070;8.596;2023-05-20T09:54:48;101140.56;;;24.46;38.36
55070;BME280;40967;52.070;8.596;2023-05-20T09:57:15;101141.56;;;24.53;38.15
55070;BME280;40967;52.070;8.596;2023-05-20T09:59:40;101155.66;;;24.60;37.56
55070;BME280;40967;52.070;8.596;2023-05-20T10:02:07;101149.00;;;24.74;37.44
55070;BME280;40967;52.070;8.596;2023-05-20T10:04:34;101148.53;;;24.72;37.30
55070;BME280;40967;52.070;8.596;2023-05-20T10:15:33;101141.13;;;24.63;37.09
55070;BME280;40967;52.070;8.596;2023-05-20T10:20:49;101144.69;;;24.52;37.95
55070;BME280;40967;52.070;8.596;2023-05-20T10:23:28;101137.78;;;24.58;37.78
55070;BME280;40967;52.070;8.596;2023-05-20T10:25:55;101138.13;;;24.56;37.58
55070;BME280;40967;52.070;8.596;2023-05-20T10:28:33;101141.25;;;24.55;37.78
55070;BME280;40967;52.070;8.596;2023-05-20T10:31:21;101144.69;;;24.40;37.47
55070;BME280;40967;52.070;8.596;2023-05-20T10:33:46;101151.75;;;24.25;37.62
55070;BME280;40967;52.070;8.596;2023-05-20T10:36:25;101135.69;;;24.19;37.65
55070;BME280;40967;52.070;8.596;2023-05-20T10:38:55;101137.19;;;24.16;37.71
55070;BME280;40967;52.070;8.596;2023-05-20T10:41:23;101143.63;;;24.08;37.60
55070;BME280;40967;52.070;8.596;2023-05-20T10:44:01;101134.88;;;24.06;37.73
55070;BME280;40967;52.070;8.596;2023-05-20T10:46:27;101132.31;;;24.01;37.80
55070;BME280;40967;52.070;8.596;2023-05-20T10:48:53;101142.38;;;24.06;37.95
55070;BME280;40967;52.070;8.596;2023-05-20T10:51:19;101136.66;;;23.90;37.75
55070;BME280;40967;52.070;8.596;2023-05-20T10:53:45;101133.63;;;23.71;38.19
55070;BME280;40967;52.070;8.596;2023-05-20T10:56:38;101131.72;;;23.63;38.89
55070;BME280;40967;52.070;8.596;2023-05-20T10:59:09;101128.59;;;23.52;39.32
55070;BME280;40967;52.070;8.596;2023-05-20T11:01:35;101131.56;;;23.47;39.58
55070;BME280;40967;52.070;8.596;2023-05-20T11:04:01;101133.72;;;23.30;39.91
55070;BME280;40967;52.070;8.596;2023-05-20T11:06:28;101128.22;;;23.01;40.20
55070;BME280;40967;52.070;8.596;2023-05-20T11:08:53;101122.81;;;22.84;40.09
55070;BME280;40967;52.070;8.596;2023-05-20T11:11:21;101119.81;;;22.68;40.68
55070;BME280;40967;52.070;8.596;2023-05-20T11:13:50;101128.19;;;22.60;40.89
55070;BME280;40967;52.070;8.596;2023-05-20T11:16:16;101122.06;;;22.45;41.34
55070;BME280;40967;52.070;8.596;2023-05-20T11:18:46;101129.53;;;22.16;41.64
55070;BME280;40967;52.070;8.596;2023-05-20T11:21:12;101125.88;;;21.95;41.86
55070;BME280;40967;52.070;8.596;2023-05-20T11:23:37;101116.47;;;21.70;42.31
55070;BME280;40967;52.070;8.596;2023-05-20T11:26:03;101110.53;;;21.60;42.41
55070;BME280;40967;52.070;8.596;2023-05-20T11:28:30;101114.59;;;21.45;42.49
55070;BME280;40967;52.070;8.596;2023-05-20T11:30:58;101106.34;;;21.28;42.80
55070;BME280;40967;52.070;8.596;2023-05-20T11:33:25;101114.63;;;21.19;43.28
55070;BME280;40967;52.070;8.596;2023-05-20T11:35:52;101100.69;;;21.16;43.49
55070;BME280;40967;52.070;8.596;2023-05-20T11:38:18;101088.16;;;21.10;44.02
55070;BME280;40967;52.070;8.596;2023-05-20T11:40:54;101098.09;;;21.11;44.21
55070;BME280;40967;52.070;8.596;2023-05-20T11:43:22;101110.91;;;21.07;44.37
55070;BME280;40967;52.070;8.596;2023-05-20T11:45:55;101112.34;;;21.04;44.46
55070;BME280;40967;52.070;8.596;2023-05-20T11:48:23;101099.53;;;21.00;44.51
55070;BME280;40967;52.070;8.596;2023-05-20T11:50:49;101102.78;;;21.02;45.26
55070;BME280;40967;52.070;8.596;2023-05-20T11:53:19;101110.91;;;21.07;45.04
55070;BME280;40967;52.070;8.596;2023-05-20T11:55:45;101108.31;;;21.10;44.93
55070;BME280;40967;52.070;8.596;2023-05-20T11:58:15;101108.63;;;21.17;44.96
55070;BME280;40967;52.070;8.596;2023-05-20T12:00:41;101099.03;;;21.23;44.74
55070;BME280;40967;52.070;8.596;2023-05-20T12:03:06;101086.06;;;21.24;44.86
55070;BME280;40967;52.070;8.596;2023-05-20T12:05:32;101094.00;;;21.25;44.90
55070;BME280;40967;52.070;8.596;2023-05-20T12:07:57;101095.28;;;21.36;44.98
55070;BME280;40967;52.070;8.596;2023-05-20T12:10:23;101088.13;;;21.44;44.69
55070;BME280;40967;52.070;8.596;2023-05-20T12:12:48;101094.44;;;21.53;44.67
55070;BME280;40967;52.070;8.596;2023-05-20T12:15:13;101078.00;;;21.65;44.55
55070;BME280;40967;52.070;8.596;2023-05-20T12:17:47;101065.44;;;21.76;44.54
55070;BME280;40967;52.070;8.596;2023-05-20T12:20:17;101066.09;;;21.90;44.16
55070;BME280;40967;52.070;8.596;2023-05-20T12:22:45;101058.41;;;21.96;43.59
55070;BME280;40967;52.070;8.596;2023-05-20T12:25:12;101062.97;;;21.92;43.77
55070;BME280;40967;52.070;8.596;2023-05-20T12:27:39;101051.09;;;21.91;43.91
55070;BME280;40967;52.070;8.596;2023-05-20T12:30:05;101058.91;;;21.89;43.95
55070;BME280;40967;52.070;8.596;2023-05-20T12:32:31;101061.03;;;21.92;43.67
55070;BME280;40967;52.070;8.596;2023-05-20T12:34:57;101061.81;;;21.93;43.48
55070;BME280;40967;52.070;8.596;2023-05-20T12:37:22;101059.06;;;21.93;43.60
55070;BME280;40967;52.070;8.596;2023-05-20T12:39:48;101058.13;;;21.89;43.41
55070;BME280;40967;52.070;8.596;2023-05-20T12:42:13;101051.50;;;21.81;43.69
55070;BME280;40967;52.070;8.596;2023-05-20T12:44:39;101058.63;;;21.74;44.16
55070;BME280;40967;52.070;8.596;2023-05-20T12:47:04;101048.59;;;21.69;44.16
55070;BME280;40967;52.070;8.596;2023-05-20T12:49:30;101044.09;;;21.56;44.13
55070;BME280;40967;52.070;8.596;2023-05-20T12:51:55;101052.53;;;21.51;44.11
55070;BME280;40967;52.070;8.596;2023-05-20T12:54:21;101049.63;;;21.48;44.57
55070;BME280;40967;52.070;8.596;2023-05-20T12:56:46;101038.75;;;21.42;44.53
55070;BME280;40967;52.070;8.596;2023-05-20T12:59:13;101048.69;;;21.43;44.76
55070;BME280;40967;52.070;8.596;2023-05-20T13:01:39;101050.75;;;21.47;45.07
55070;BME280;40967;52.070;8.596;2023-05-20T13:04:05;101043.78;;;21.49;44.73